Time,TemperatureF,DewpointF,PressureIn,WindDirection,WindDirectionDegrees,WindSpeedMPH,WindSpeedGustMPH,Humidity,HourlyPrecipIn,Conditions,Clouds,dailyrainin,SoftwareType,DateUTC
2013-08-19 00:00:00,62.2,60.8,30.13,SE,135,0.0,0.0,95,0.00,,,0.42,Wunderground v.1.15,2013-08-19 04:00:00,
2013-08-19 00:05:00,62.2,60.8,30.13,SE,135,0.0,0.0,95,0.00,,,0.00,Wunderground v.1.15,2013-08-19 04:05:00,
2013-08-19 00:15:00,62.2,60.8,30.13,SE,135,0.0,0.0,95,0.00,,,0.00,Wunderground v.1.15,2013-08-19 04:15:00,
2013-08-19 00:20:00,62.1,60.7,30.13,SE,135,0.0,0.0,95,0.00,,,0.00,Wunderground v.1.15,2013-08-19 04:20:00,
2013-08-19 00:25:00,62.1,60.7,30.13,SE,135,0.0,0.0,95,0.00,,,0.00,Wunderground v.1.15,2013-08-19 04:25:00,
2013-08-19 00:35:00,62.2,60.8,30.13,SE,135,0.0,0.0,95,0.00,,,0.00,Wunderground v.1.15,2013-08-19 04:35:00,
2013-08-19 00:45:00,62.2,60.8,30.13,SE,135,0.0,0.0,95,0.00,,,0.00,Wunderground v.1.15,2013-08-19 04:45:00,
2013-08-19 00:55:00,62.2,60.8,30.12,SE,135,0.0,0.0,95,0.00,,,0.00,Wunderground v.1.15,2013-08-19 04:55:00,
2013-08-19 01:05:00,62.2,60.8,30.12,SE,135,0.0,0.0,95,0.00,,,0.00,Wunderground v.1.15,2013-08-19 05:05:00,
2013-08-19 01:15:00,62.1,60.7,30.12,SE,135,0.0,0.0,95,0.00,,,0.00,Wunderground v.1.15,2013-08-19 05:15:00,
2013-08-19 01:25:00,62.1,60.9,30.12,SE,135,0.0,0.0,96,0.00,,,0.00,Wunderground v.1.15,2013-08-19 05:25:00,
2013-08-19 01:35:00,62.2,61.0,30.12,SE,135,0.0,0.0,96,0.00,,,0.00,Wunderground v.1.15,2013-08-19 05:35:00,
2013-08-19 01:40:00,62.2,61.0,30.12,SE,135,0.0,0.0,96,0.00,,,0.00,Wunderground v.1.15,2013-08-19 05:40:00,
2013-08-19 01:50:00,62.2,61.0,30.12,SE,135,0.0,0.0,96,0.00,,,0.00,Wunderground v.1.15,2013-08-19 05:50:00,
2013-08-19 02:00:00,62.2,60.8,30.12,SE,135,0.0,0.0,95,0.00,,,0.00,Wunderground v.1.15,2013-08-19 06:00:00,
2013-08-19 02:05:00,62.1,60.7,30.11,SE,135,0.0,0.0,95,0.00,,,0.00,Wunderground v.1.15,2013-08-19 06:05:00,
2013-08-19 02:15:00,62.2,60.8,30.11,SE,135,0.0,0.0,95,0.00,,,0.00,Wunderground v.1.15,2013-08-19 06:15:00,
2013-08-19 02:25:00,62.3,61.1,30.11,SE,135,0.0,0.0,96,0.00,,,0.00,Wunderground v.1.15,2013-08-19 06:25:00,
2013-08-19 02:30:00,62.3,61.1,30.11,SE,135,0.0,0.0,96,0.00,,,0.00,Wunderground v.1.15,2013-08-19 06:30:00,
2013-08-19 02:40:00,62.3,61.1,30.11,SE,134,0.0,0.0,96,0.00,,,0.00,Wunderground v.1.15,2013-08-19 06:40:00,
2013-08-19 02:50:00,62.3,61.1,30.10,SE,135,0.0,0.0,96,0.00,,,0.00,Wunderground v.1.15,2013-08-19 06:50:00,
2013-08-19 03:00:00,62.2,61.0,30.10,SE,135,0.0,0.0,96,0.00,,,0.00,Wunderground v.1.15,2013-08-19 07:00:00,
2013-08-19 03:05:00,62.2,61.0,30.10,SE,135,0.0,0.0,96,0.00,,,0.00,Wunderground v.1.15,2013-08-19 07:05:00,
2013-08-19 03:15:00,62.2,61.0,30.10,SE,135,0.0,0.0,96,0.00,,,0.00,Wunderground v.1.15,2013-08-19 07:15:00,
2013-08-19 03:25:00,62.2,61.0,30.10,SE,135,0.0,0.0,96,0.00,,,0.00,Wunderground v.1.15,2013-08-19 07:25:00,
2013-08-19 03:35:00,62.2,61.0,30.10,SE,135,0.0,0.0,96,0.00,,,0.00,Wunderground v.1.15,2013-08-19 07:35:00,
2013-08-19 03:45:00,62.1,60.9,30.09,SE,135,0.0,0.0,96,0.00,,,0.00,Wunderground v.1.15,2013-08-19 07:45:00,
2013-08-19 03:55:00,62.1,60.9,30.09,SE,135,0.0,0.0,96,0.00,,,0.00,Wunderground v.1.15,2013-08-19 07:55:00,
2013-08-19 04:05:00,62.1,61.2,30.09,SE,135,0.0,0.0,97,0.00,,,0.00,Wunderground v.1.15,2013-08-19 08:05:00,
2013-08-19 04:15:00,62.0,61.1,30.09,SE,135,0.0,0.0,97,0.00,,,0.00,Wunderground v.1.15,2013-08-19 08:15:00,
2013-08-19 04:25:00,61.9,61.0,30.10,SE,135,0.0,0.0,97,0.00,,,0.00,Wunderground v.1.15,2013-08-19 08:25:00,
2013-08-19 04:35:00,61.8,60.6,30.09,SE,135,0.0,0.0,96,0.00,,,0.00,Wunderground v.1.15,2013-08-19 08:35:00,
2013-08-19 04:40:00,61.7,60.8,30.09,SE,135,0.0,0.0,97,0.00,,,0.00,Wunderground v.1.15,2013-08-19 08:40:00,
2013-08-19 04:50:00,61.7,60.8,30.09,SE,135,0.0,0.0,97,0.00,,,0.00,Wunderground v.1.15,2013-08-19 08:50:00,
2013-08-19 05:00:00,61.6,60.7,30.09,SE,135,0.0,0.0,97,0.00,,,0.00,Wunderground v.1.15,2013-08-19 09:00:00,
2013-08-19 05:05:00,61.6,60.7,30.09,SE,135,0.0,0.0,97,0.00,,,0.00,Wunderground v.1.15,2013-08-19 09:05:00,
2013-08-19 05:15:00,61.7,60.8,30.09,SE,135,0.0,0.0,97,0.00,,,0.00,Wunderground v.1.15,2013-08-19 09:15:00,
2013-08-19 05:25:00,61.6,60.7,30.09,SE,135,0.0,0.0,97,0.00,,,0.00,Wunderground v.1.15,2013-08-19 09:25:00,
2013-08-19 05:35:00,61.5,60.6,30.08,SE,135,0.0,0.0,97,0.00,,,0.00,Wunderground v.1.15,2013-08-19 09:35:00,
2013-08-19 05:45:00,61.4,60.5,30.09,SE,135,0.0,0.0,97,0.00,,,0.00,Wunderground v.1.15,2013-08-19 09:45:00,
2013-08-19 05:55:00,61.4,60.5,30.09,SE,135,0.0,0.0,97,0.00,,,0.00,Wunderground v.1.15,2013-08-19 09:55:00,
2013-08-19 06:05:00,61.5,60.6,30.08,SE,135,0.0,0.0,97,0.00,,,0.00,Wunderground v.1.15,2013-08-19 10:05:00,
2013-08-19 06:15:00,61.5,60.6,30.08,SE,135,0.0,0.0,97,0.00,,,0.00,Wunderground v.1.15,2013-08-19 10:15:00,
2013-08-19 06:25:00,61.5,60.6,30.09,SE,135,0.0,0.0,97,0.00,,,0.00,Wunderground v.1.15,2013-08-19 10:25:00,
2013-08-19 06:35:00,61.4,60.5,30.09,SE,135,0.0,0.0,97,0.00,,,0.00,Wunderground v.1.15,2013-08-19 10:35:00,
2013-08-19 06:45:00,61.4,60.5,30.09,SE,135,0.0,0.0,97,0.00,,,0.00,Wunderground v.1.15,2013-08-19 10:45:00,
2013-08-19 06:50:00,61.4,60.5,30.09,SE,135,0.0,0.0,97,0.00,,,0.00,Wunderground v.1.15,2013-08-19 10:50:00,
2013-08-19 07:00:00,61.5,60.6,30.10,SE,135,0.0,0.0,97,0.00,,,0.00,Wunderground v.1.15,2013-08-19 11:00:00,
2013-08-19 07:05:00,61.5,60.6,30.10,SE,135,0.0,0.0,97,0.00,,,0.00,Wunderground v.1.15,2013-08-19 11:05:00,
2013-08-19 07:15:00,61.6,60.7,30.09,WSW,251,0.0,0.0,97,0.00,,,0.00,Wunderground v.1.15,2013-08-19 11:15:00,
2013-08-19 07:20:00,61.7,60.8,30.09,WSW,251,0.0,0.0,97,0.00,,,0.00,Wunderground v.1.15,2013-08-19 11:20:00,
2013-08-19 07:30:00,61.9,61.0,30.09,WSW,251,0.0,0.0,97,0.00,,,0.00,Wunderground v.1.15,2013-08-19 11:30:00,
2013-08-19 07:40:00,62.0,61.1,30.09,WSW,251,0.0,0.0,97,0.00,,,0.00,Wunderground v.1.15,2013-08-19 11:40:00,
2013-08-19 07:50:00,62.1,61.2,30.10,WSW,251,0.0,0.0,97,0.00,,,0.00,Wunderground v.1.15,2013-08-19 11:50:00,
2013-08-19 08:00:00,62.3,61.4,30.10,WSW,251,0.0,1.0,97,0.00,,,0.00,Wunderground v.1.15,2013-08-19 12:00:00,
2013-08-19 08:05:00,62.3,61.4,30.10,WSW,251,0.0,1.0,97,0.00,,,0.00,Wunderground v.1.15,2013-08-19 12:05:00,
2013-08-19 08:15:00,62.4,61.2,30.10,WSW,251,0.0,0.0,96,0.00,,,0.00,Wunderground v.1.15,2013-08-19 12:15:00,
2013-08-19 08:25:00,62.9,62.0,30.09,WSW,251,0.0,0.0,97,0.00,,,0.00,Wunderground v.1.15,2013-08-19 12:25:00,
2013-08-19 08:35:00,63.2,62.0,30.09,WSW,251,0.0,0.0,96,0.00,,,0.00,Wunderground v.1.15,2013-08-19 12:35:00,
2013-08-19 08:45:00,63.5,62.3,30.10,WSW,251,0.0,0.0,96,0.00,,,0.00,Wunderground v.1.15,2013-08-19 12:45:00,
2013-08-19 08:55:00,63.7,62.2,30.10,WSW,251,0.0,0.0,95,0.00,,,0.00,Wunderground v.1.15,2013-08-19 12:55:00,
2013-08-19 09:05:00,64.1,62.6,30.10,WSW,251,0.0,0.0,95,0.00,,,0.00,Wunderground v.1.15,2013-08-19 13:05:00,
2013-08-19 09:15:00,64.2,62.4,30.10,WSW,251,0.0,0.0,94,0.00,,,0.00,Wunderground v.1.15,2013-08-19 13:15:00,
2013-08-19 09:20:00,64.4,62.6,30.10,WSW,251,0.0,0.0,94,0.00,,,0.00,Wunderground v.1.15,2013-08-19 13:20:00,
2013-08-19 09:30:00,64.4,62.3,30.09,WSW,251,0.0,0.0,93,0.00,,,0.00,Wunderground v.1.15,2013-08-19 13:30:00,
2013-08-19 09:40:00,64.4,62.9,30.09,WSW,251,0.0,0.0,95,0.00,,,0.00,Wunderground v.1.15,2013-08-19 13:40:00,
2013-08-19 09:50:00,64.3,62.8,30.09,WSW,251,0.0,0.0,95,0.00,,,0.00,Wunderground v.1.15,2013-08-19 13:50:00,
2013-08-19 10:00:00,64.4,62.9,30.09,WSW,251,0.0,0.0,95,0.00,,,0.00,Wunderground v.1.15,2013-08-19 14:00:00,
2013-08-19 10:05:00,64.4,62.9,30.09,WSW,251,0.0,0.0,95,0.00,,,0.01,Wunderground v.1.15,2013-08-19 14:05:00,
2013-08-19 10:15:00,64.5,63.3,30.08,WSW,251,0.0,0.0,96,0.00,,,0.01,Wunderground v.1.15,2013-08-19 14:15:00,
2013-08-19 10:25:00,64.7,63.5,30.09,WSW,251,0.0,0.0,96,0.00,,,0.01,Wunderground v.1.15,2013-08-19 14:25:00,
2013-08-19 10:35:00,65.0,63.8,30.08,WSW,251,0.0,0.0,96,0.00,,,0.01,Wunderground v.1.15,2013-08-19 14:35:00,
2013-08-19 10:40:00,65.1,64.2,30.09,WSW,251,0.0,1.0,97,0.00,,,0.01,Wunderground v.1.15,2013-08-19 14:40:00,
2013-08-19 10:50:00,65.2,64.0,30.09,WSW,251,0.0,0.0,96,0.00,,,0.01,Wunderground v.1.15,2013-08-19 14:50:00,
2013-08-19 11:00:00,65.7,64.5,30.08,WSW,251,0.0,0.0,96,0.00,,,0.01,Wunderground v.1.15,2013-08-19 15:00:00,
2013-08-19 11:05:00,66.2,65.3,30.08,WSW,251,0.0,1.0,97,0.00,,,0.01,Wunderground v.1.15,2013-08-19 15:05:00,
2013-08-19 11:15:00,67.2,65.7,30.08,WSW,256,1.0,1.0,95,0.00,,,0.01,Wunderground v.1.15,2013-08-19 15:15:00,
2013-08-19 11:20:00,67.3,65.5,30.08,WSW,256,0.0,0.0,94,0.00,,,0.01,Wunderground v.1.15,2013-08-19 15:20:00,
2013-08-19 11:30:00,68.0,66.5,30.08,WSW,257,1.0,2.0,95,0.00,,,0.01,Wunderground v.1.15,2013-08-19 15:30:00,
2013-08-19 11:40:00,68.2,66.4,30.08,WSW,256,1.0,1.0,94,0.00,,,0.01,Wunderground v.1.15,2013-08-19 15:40:00,
2013-08-19 11:50:00,68.8,67.0,30.08,WSW,255,1.0,3.0,94,0.00,,,0.01,Wunderground v.1.15,2013-08-19 15:50:00,
2013-08-19 12:00:00,70.1,68.0,30.08,WSW,255,1.0,1.0,93,0.00,,,0.01,Wunderground v.1.15,2013-08-19 16:00:00,
2013-08-19 12:05:00,70.8,69.0,30.07,WSW,255,0.0,1.0,94,0.00,,,0.01,Wunderground v.1.15,2013-08-19 16:05:00,
2013-08-19 12:15:00,71.9,68.8,30.07,SSW,204,1.0,2.0,90,0.00,,,0.01,Wunderground v.1.15,2013-08-19 16:15:00,
2013-08-19 12:25:00,72.9,68.5,30.07,SSE,166,1.0,1.0,86,0.00,,,0.01,Wunderground v.1.15,2013-08-19 16:25:00,
2013-08-19 12:35:00,73.4,69.0,30.07,SSE,165,0.0,1.0,86,0.00,,,0.01,Wunderground v.1.15,2013-08-19 16:35:00,
2013-08-19 12:40:00,73.5,68.7,30.07,NE,40,0.0,0.0,85,0.00,,,0.01,Wunderground v.1.15,2013-08-19 16:40:00,
2013-08-19 12:45:00,73.8,69.0,30.06,NE,40,0.0,0.0,85,0.00,,,0.01,Wunderground v.1.15,2013-08-19 16:45:00,
2013-08-19 12:55:00,74.2,68.7,30.06,SSW,207,1.0,1.0,83,0.00,,,0.01,Wunderground v.1.15,2013-08-19 16:55:00,
2013-08-19 13:05:00,74.1,69.0,30.06,SW,226,1.0,3.0,84,0.00,,,0.01,Wunderground v.1.15,2013-08-19 17:05:00,
2013-08-19 13:15:00,73.6,68.8,30.06,SW,229,1.0,2.0,85,0.00,,,0.01,Wunderground v.1.15,2013-08-19 17:15:00,
2013-08-19 13:20:00,73.0,68.9,30.06,SW,229,0.0,0.0,87,0.00,,,0.01,Wunderground v.1.15,2013-08-19 17:20:00,
2013-08-19 13:25:00,72.7,69.3,30.06,SW,232,0.0,1.0,89,0.00,,,0.01,Wunderground v.1.15,2013-08-19 17:25:00,
2013-08-19 13:35:00,72.4,69.3,30.05,SW,232,0.0,1.0,90,0.00,,,0.01,Wunderground v.1.15,2013-08-19 17:35:00,
2013-08-19 13:45:00,73.3,69.9,30.05,WSW,239,2.0,2.0,89,0.00,,,0.01,Wunderground v.1.15,2013-08-19 17:45:00,
2013-08-19 13:55:00,74.3,70.5,30.05,SW,219,1.0,2.0,88,0.00,,,0.01,Wunderground v.1.15,2013-08-19 17:55:00,
2013-08-19 14:05:00,74.8,70.3,30.04,SW,219,1.0,1.0,86,0.00,,,0.01,Wunderground v.1.15,2013-08-19 18:05:00,
2013-08-19 14:15:00,75.2,70.7,30.04,SSW,204,1.0,2.0,86,0.00,,,0.01,Wunderground v.1.15,2013-08-19 18:15:00,
2013-08-19 14:25:00,75.6,70.4,30.04,WSW,251,1.0,1.0,84,0.00,,,0.01,Wunderground v.1.15,2013-08-19 18:25:00,
2013-08-19 14:35:00,76.0,70.1,30.03,WSW,251,1.0,1.0,82,0.00,,,0.01,Wunderground v.1.15,2013-08-19 18:35:00,
2013-08-19 14:45:00,76.2,71.0,30.03,WSW,251,0.0,0.0,84,0.00,,,0.01,Wunderground v.1.15,2013-08-19 18:45:00,
2013-08-19 14:55:00,75.8,70.3,30.03,WSW,251,0.0,0.0,83,0.00,,,0.01,Wunderground v.1.15,2013-08-19 18:55:00,
2013-08-19 15:05:00,76.0,70.1,30.03,WSW,251,0.0,0.0,82,0.00,,,0.01,Wunderground v.1.15,2013-08-19 19:05:00,
2013-08-19 15:15:00,75.8,70.3,30.03,WSW,252,0.0,0.0,83,0.00,,,0.01,Wunderground v.1.15,2013-08-19 19:15:00,
2013-08-19 15:20:00,75.9,70.4,30.03,WSW,252,0.0,0.0,83,0.00,,,0.01,Wunderground v.1.15,2013-08-19 19:20:00,
2013-08-19 15:30:00,76.5,70.9,30.02,WSW,252,0.0,0.0,83,0.00,,,0.01,Wunderground v.1.15,2013-08-19 19:30:00,
2013-08-19 15:40:00,78.9,71.8,30.02,East,99,0.0,0.0,79,0.00,,,0.01,Wunderground v.1.15,2013-08-19 19:40:00,
2013-08-19 15:50:00,80.9,71.8,30.02,SW,214,1.0,1.0,74,0.00,,,0.01,Wunderground v.1.15,2013-08-19 19:50:00,
2013-08-19 16:00:00,81.5,69.5,30.02,WNW,293,2.0,2.0,67,0.00,,,0.01,Wunderground v.1.15,2013-08-19 20:00:00,
2013-08-19 16:05:00,80.7,69.6,30.02,WSW,238,2.0,2.0,69,0.00,,,0.01,Wunderground v.1.15,2013-08-19 20:05:00,
2013-08-19 16:15:00,79.7,71.8,30.02,NW,305,0.0,3.0,77,0.00,,,0.01,Wunderground v.1.15,2013-08-19 20:15:00,
2013-08-19 16:25:00,80.7,71.2,30.02,South,188,1.0,4.0,73,0.00,,,0.01,Wunderground v.1.15,2013-08-19 20:25:00,
2013-08-19 16:35:00,82.1,70.5,30.02,WSW,244,3.0,4.0,68,0.00,,,0.01,Wunderground v.1.15,2013-08-19 20:35:00,
2013-08-19 16:45:00,81.6,68.7,30.01,SSW,210,3.0,3.0,65,0.00,,,0.01,Wunderground v.1.15,2013-08-19 20:45:00,
2013-08-19 16:55:00,79.9,69.2,30.01,WSW,240,1.0,2.0,70,0.00,,,0.01,Wunderground v.1.15,2013-08-19 20:55:00,
2013-08-19 17:05:00,80.7,69.6,30.01,SSW,206,2.0,2.0,69,0.00,,,0.01,Wunderground v.1.15,2013-08-19 21:05:00,
2013-08-19 17:15:00,80.4,70.5,30.01,ENE,71,1.0,1.0,72,0.00,,,0.01,Wunderground v.1.15,2013-08-19 21:15:00,
2013-08-19 17:20:00,81.1,70.8,30.01,East,99,1.0,1.0,71,0.00,,,0.01,Wunderground v.1.15,2013-08-19 21:20:00,
2013-08-19 17:30:00,81.9,68.5,30.00,West,263,1.0,1.0,64,0.00,,,0.01,Wunderground v.1.15,2013-08-19 21:30:00,
2013-08-19 17:40:00,82.2,68.8,30.01,WSW,245,1.0,1.0,64,0.00,,,0.01,Wunderground v.1.15,2013-08-19 21:40:00,
2013-08-19 17:50:00,82.1,70.9,30.00,SSW,205,0.0,1.0,69,0.00,,,0.01,Wunderground v.1.15,2013-08-19 21:50:00,
2013-08-19 18:00:00,82.0,70.0,30.00,NNE,32,1.0,1.0,67,0.00,,,0.01,Wunderground v.1.15,2013-08-19 22:00:00,
2013-08-19 18:05:00,82.2,70.6,30.01,SSE,159,1.0,1.0,68,0.00,,,0.01,Wunderground v.1.15,2013-08-19 22:05:00,
2013-08-19 18:15:00,82.0,70.0,30.01,SW,234,0.0,1.0,67,0.00,,,0.01,Wunderground v.1.15,2013-08-19 22:15:00,
2013-08-19 18:20:00,81.8,71.1,30.00,SW,234,0.0,0.0,70,0.00,,,0.01,Wunderground v.1.15,2013-08-19 22:20:00,
2013-08-19 18:30:00,81.0,69.9,30.00,SW,235,0.0,0.0,69,0.00,,,0.01,Wunderground v.1.15,2013-08-19 22:30:00,
2013-08-19 18:40:00,79.5,68.9,30.01,West,274,1.0,1.0,70,0.00,,,0.01,Wunderground v.1.15,2013-08-19 22:40:00,
2013-08-19 18:50:00,78.4,68.6,30.01,NNE,27,0.0,0.0,72,0.00,,,0.01,Wunderground v.1.15,2013-08-19 22:50:00,
2013-08-19 18:55:00,77.7,68.0,30.01,NNE,26,0.0,0.0,72,0.00,,,0.01,Wunderground v.1.15,2013-08-19 22:55:00,
2013-08-19 19:05:00,76.2,68.1,30.01,NNE,26,0.0,0.0,76,0.00,,,0.01,Wunderground v.1.15,2013-08-19 23:05:00,
2013-08-19 19:15:00,75.0,68.0,30.01,NNE,26,0.0,0.0,79,0.00,,,0.01,Wunderground v.1.15,2013-08-19 23:15:00,
2013-08-19 19:25:00,74.1,68.6,30.01,NNE,26,0.0,0.0,83,0.00,,,0.01,Wunderground v.1.15,2013-08-19 23:25:00,
2013-08-19 19:35:00,72.9,68.1,30.01,NNE,26,0.0,0.0,85,0.00,,,0.01,Wunderground v.1.15,2013-08-19 23:35:00,
2013-08-19 19:45:00,72.2,67.8,30.01,NNE,26,0.0,0.0,86,0.00,,,0.01,Wunderground v.1.15,2013-08-19 23:45:00,
2013-08-19 19:55:00,71.4,66.0,30.01,NNE,26,0.0,0.0,83,0.00,,,0.01,Wunderground v.1.15,2013-08-19 23:55:00,
2013-08-19 20:05:00,71.1,66.0,30.01,NNE,26,0.0,1.0,84,0.00,,,0.01,Wunderground v.1.15,2013-08-20 00:05:00,
2013-08-19 20:15:00,70.7,65.6,30.01,NNE,26,0.0,0.0,84,0.00,,,0.01,Wunderground v.1.15,2013-08-20 00:15:00,
2013-08-19 20:25:00,70.4,66.0,30.02,NNE,26,0.0,0.0,86,0.00,,,0.01,Wunderground v.1.15,2013-08-20 00:25:00,
2013-08-19 20:35:00,70.1,66.4,30.02,NNW,329,0.0,1.0,88,0.00,,,0.01,Wunderground v.1.15,2013-08-20 00:35:00,
2013-08-19 20:40:00,70.1,66.7,30.02,NNW,329,0.0,0.0,89,0.00,,,0.01,Wunderground v.1.15,2013-08-20 00:40:00,
2013-08-19 20:50:00,69.7,66.0,30.03,NNW,329,0.0,0.0,88,0.00,,,0.01,Wunderground v.1.15,2013-08-20 00:50:00,
2013-08-19 21:00:00,69.3,64.9,30.03,NNW,329,0.0,0.0,86,0.00,,,0.01,Wunderground v.1.15,2013-08-20 01:00:00,
2013-08-19 21:05:00,69.0,65.0,30.03,NNW,329,0.0,0.0,87,0.00,,,0.01,Wunderground v.1.15,2013-08-20 01:05:00,
2013-08-19 21:15:00,68.8,65.1,30.04,NNW,329,0.0,0.0,88,0.00,,,0.01,Wunderground v.1.15,2013-08-20 01:15:00,
2013-08-19 21:25:00,68.5,64.8,30.04,WNW,286,0.0,1.0,88,0.00,,,0.01,Wunderground v.1.15,2013-08-20 01:25:00,
2013-08-19 21:35:00,68.4,65.4,30.05,WNW,286,0.0,0.0,90,0.00,,,0.01,Wunderground v.1.15,2013-08-20 01:35:00,
2013-08-19 21:45:00,68.2,65.2,30.05,WNW,286,0.0,0.0,90,0.00,,,0.01,Wunderground v.1.15,2013-08-20 01:45:00,
2013-08-19 21:55:00,67.9,65.2,30.05,WNW,286,0.0,0.0,91,0.00,,,0.01,Wunderground v.1.15,2013-08-20 01:55:00,
2013-08-19 22:00:00,67.8,65.1,30.05,WNW,286,0.0,0.0,91,0.00,,,0.01,Wunderground v.1.15,2013-08-20 02:00:00,
2013-08-19 22:05:00,67.6,64.9,30.05,WNW,286,0.0,0.0,91,0.00,,,0.01,Wunderground v.1.15,2013-08-20 02:05:00,
2013-08-19 22:15:00,67.4,65.0,30.05,WNW,286,0.0,1.0,92,0.00,,,0.01,Wunderground v.1.15,2013-08-20 02:15:00,
2013-08-19 22:25:00,67.2,65.1,30.05,WNW,286,0.0,0.0,93,0.00,,,0.01,Wunderground v.1.15,2013-08-20 02:25:00,
2013-08-19 22:35:00,67.1,65.0,30.05,WNW,286,0.0,0.0,93,0.00,,,0.01,Wunderground v.1.15,2013-08-20 02:35:00,
2013-08-19 22:45:00,67.0,64.9,30.05,WNW,286,0.0,0.0,93,0.00,,,0.01,Wunderground v.1.15,2013-08-20 02:45:00,
2013-08-19 22:55:00,66.8,65.0,30.05,WNW,286,0.0,0.0,94,0.00,,,0.01,Wunderground v.1.15,2013-08-20 02:55:00,
2013-08-19 23:05:00,66.7,64.9,30.06,WNW,286,0.0,0.0,94,0.00,,,0.01,Wunderground v.1.15,2013-08-20 03:05:00,
2013-08-19 23:15:00,66.6,64.8,30.06,NW,316,0.0,0.0,94,0.00,,,0.01,Wunderground v.1.15,2013-08-20 03:15:00,
2013-08-19 23:25:00,66.5,64.7,30.06,NNE,30,0.0,2.0,94,0.00,,,0.01,Wunderground v.1.15,2013-08-20 03:25:00,
2013-08-19 23:35:00,66.3,64.8,30.06,NNE,30,0.0,0.0,95,0.00,,,0.01,Wunderground v.1.15,2013-08-20 03:35:00,
2013-08-19 23:45:00,65.9,64.4,30.06,NNE,31,0.0,0.0,95,0.00,,,0.01,Wunderground v.1.15,2013-08-20 03:45:00,
2013-08-19 23:55:00,65.6,64.1,30.06,NNE,30,0.0,0.0,95,0.00,,,0.01,Wunderground v.1.15,2013-08-20 03:55:00,